createdAt,value
2023-04-24T00:01:18.577Z,12.35
2023-04-24T00:03:49.598Z,12.24
2023-04-24T00:06:20.398Z,12.28
2023-04-24T00:08:53.384Z,12.22
2023-04-24T00:11:24.310Z,12.23
2023-04-24T00:13:55.386Z,12.19
2023-04-24T00:16:27.224Z,12.18
2023-04-24T00:18:59.199Z,12.16
2023-04-24T00:21:30.943Z,12.23
2023-04-24T00:24:02.706Z,12.16
2023-04-24T00:26:33.251Z,12.04
2023-04-24T00:29:04.661Z,12.06
2023-04-24T00:31:38.439Z,12.07
2023-04-24T00:34:09.429Z,12.02
2023-04-24T00:36:41.601Z,11.97
2023-04-24T00:39:12.380Z,11.94
2023-04-24T00:41:43.236Z,11.90
2023-04-24T00:44:13.990Z,11.92
2023-04-24T00:46:45.549Z,11.92
2023-04-24T00:49:16.505Z,11.92
2023-04-24T00:51:51.108Z,11.86
2023-04-24T00:54:23.531Z,11.88
2023-04-24T00:56:56.474Z,11.85
2023-04-24T00:59:30.180Z,11.86
2023-04-24T01:02:00.841Z,11.92
2023-04-24T01:04:32.188Z,11.82
2023-04-24T01:07:03.788Z,11.85
2023-04-24T01:09:34.409Z,11.88
2023-04-24T01:12:05.150Z,11.91
2023-04-24T01:14:35.814Z,11.92
2023-04-24T01:17:08.292Z,11.93
2023-04-24T01:19:43.094Z,11.80
2023-04-24T01:22:18.406Z,11.80
2023-04-24T01:24:49.002Z,11.80
2023-04-24T01:27:19.604Z,11.71
2023-04-24T01:29:51.875Z,11.80
2023-04-24T01:32:24.018Z,11.72
2023-04-24T01:34:54.612Z,11.64
2023-04-24T01:37:25.598Z,11.65
2023-04-24T01:39:57.908Z,11.75
2023-04-24T01:42:29.107Z,11.70
2023-04-24T01:45:00.054Z,11.76
2023-04-24T01:47:34.659Z,11.75
2023-04-24T01:50:07.728Z,11.79
2023-04-24T01:52:38.636Z,11.88
2023-04-24T01:55:09.892Z,11.90
2023-04-24T01:57:40.927Z,11.77
2023-04-24T02:00:14.096Z,11.81
2023-04-24T02:02:47.388Z,11.76
2023-04-24T02:05:17.079Z,11.72
2023-04-24T02:07:48.318Z,11.72
2023-04-24T02:10:20.554Z,11.72
2023-04-24T02:12:51.232Z,11.80
2023-04-24T02:15:21.798Z,11.78
2023-04-24T02:17:52.330Z,11.69
2023-04-24T02:20:22.831Z,11.66
2023-04-24T02:22:53.362Z,11.64
2023-04-24T02:25:24.097Z,11.58
2023-04-24T02:27:54.711Z,11.57
2023-04-24T02:30:25.169Z,11.60
2023-04-24T02:32:56.267Z,11.62
2023-04-24T02:35:27.668Z,11.62
2023-04-24T02:37:58.091Z,11.81
2023-04-24T02:40:28.635Z,11.70
2023-04-24T02:42:59.095Z,11.65
2023-04-24T02:45:29.654Z,11.77
2023-04-24T02:48:00.866Z,11.64
2023-04-24T02:50:31.548Z,11.69
2023-04-24T02:53:02.516Z,11.66
2023-04-24T02:55:33.104Z,11.58
2023-04-24T02:58:03.674Z,11.64
2023-04-24T03:00:35.792Z,11.74
2023-04-24T03:03:08.030Z,11.70
2023-04-24T03:05:39.027Z,11.61
2023-04-24T03:08:09.780Z,11.70
2023-04-24T03:10:40.822Z,11.82
2023-04-24T03:13:12.576Z,11.75
2023-04-24T03:15:43.128Z,11.77
2023-04-24T03:18:13.685Z,11.74
2023-04-24T03:20:44.709Z,11.78
2023-04-24T03:23:15.338Z,11.86
2023-04-24T03:25:46.348Z,11.86
2023-04-24T03:28:17.444Z,11.91
2023-04-24T03:30:48.160Z,11.81
2023-04-24T03:33:18.756Z,11.98
2023-04-24T03:35:49.723Z,11.88
2023-04-24T03:38:23.509Z,12.00
2023-04-24T03:40:54.183Z,12.01
2023-04-24T03:43:25.552Z,12.07
2023-04-24T03:45:56.359Z,11.95
2023-04-24T03:48:26.769Z,12.01
2023-04-24T03:50:58.787Z,12.04
2023-04-24T03:53:29.268Z,12.24
2023-04-24T03:55:59.936Z,12.10
2023-04-24T03:58:30.555Z,12.11
2023-04-24T04:01:01.062Z,12.15
2023-04-24T04:03:31.603Z,12.18
2023-04-24T04:06:02.212Z,12.12
2023-04-24T04:08:32.792Z,12.16
2023-04-24T04:11:05.414Z,12.16
2023-04-24T04:13:35.971Z,12.16
2023-04-24T04:16:06.988Z,12.14
2023-04-24T04:18:38.785Z,12.08
2023-04-24T04:21:09.387Z,12.28
2023-04-24T04:23:41.528Z,12.22
2023-04-24T04:26:14.048Z,12.26
2023-04-24T04:28:45.593Z,12.21
2023-04-24T04:31:17.412Z,12.27
2023-04-24T04:33:48.762Z,12.22
2023-04-24T04:36:19.671Z,12.25
2023-04-24T04:38:54.853Z,12.30
2023-04-24T04:41:26.130Z,12.32
2023-04-24T04:43:58.224Z,12.47
2023-04-24T04:46:28.878Z,12.55
2023-04-24T04:48:59.732Z,12.40
2023-04-24T04:51:31.792Z,12.52
2023-04-24T04:54:03.410Z,12.59
2023-04-24T04:56:33.951Z,12.71
2023-04-24T04:59:04.423Z,12.67
2023-04-24T05:01:35.199Z,12.74
2023-04-24T05:04:05.852Z,12.87
2023-04-24T05:06:36.730Z,12.65
2023-04-24T05:09:08.448Z,12.92
2023-04-24T05:11:40.555Z,13.09
2023-04-24T05:14:11.127Z,13.22
2023-04-24T05:16:42.227Z,13.40
2023-04-24T05:19:14.378Z,13.61
2023-04-24T05:21:44.947Z,13.42
2023-04-24T05:24:15.769Z,13.72
2023-04-24T05:26:48.303Z,14.09
2023-04-24T05:29:20.204Z,15.84
2023-04-24T05:31:51.071Z,16.80
2023-04-24T05:34:23.587Z,17.44
2023-04-24T05:36:55.592Z,16.78
2023-04-24T05:39:27.070Z,16.55
2023-04-24T05:41:59.308Z,17.16
2023-04-24T05:44:31.600Z,17.98
2023-04-24T05:47:03.977Z,18.03
2023-04-24T05:49:34.499Z,17.52
2023-04-24T05:52:06.678Z,17.29
2023-04-24T05:54:37.446Z,16.96
2023-04-24T05:57:09.777Z,17.07
2023-04-24T05:59:41.013Z,16.88
2023-04-24T06:02:15.090Z,18.59
2023-04-24T06:04:46.828Z,18.88
2023-04-24T06:07:18.729Z,19.05
2023-04-24T06:09:50.938Z,18.40
2023-04-24T06:12:21.479Z,19.08
2023-04-24T06:14:55.909Z,21.11
2023-04-24T06:17:27.807Z,20.54
2023-04-24T06:19:58.365Z,19.12
2023-04-24T06:22:32.157Z,18.98
2023-04-24T06:25:02.679Z,18.65
2023-04-24T06:27:34.917Z,18.73
2023-04-24T06:30:07.436Z,17.83
2023-04-24T06:32:38.290Z,16.79
2023-04-24T06:35:12.494Z,16.27
2023-04-24T06:37:44.612Z,16.15
2023-04-24T06:40:15.236Z,16.13
2023-04-24T06:42:45.976Z,15.87
2023-04-24T06:45:16.600Z,15.91
2023-04-24T06:47:47.452Z,15.70
2023-04-24T06:50:19.543Z,15.68
2023-04-24T06:52:50.298Z,15.61
2023-04-24T06:55:23.126Z,15.78
2023-04-24T06:57:56.558Z,16.02
2023-04-24T07:00:28.455Z,15.99
2023-04-24T07:03:00.466Z,15.82
2023-04-24T07:05:36.403Z,15.72
2023-04-24T07:08:14.017Z,15.83
2023-04-24T07:10:46.981Z,15.69
2023-04-24T07:13:17.514Z,15.78
2023-04-24T07:15:52.732Z,15.70
2023-04-24T07:18:34.518Z,16.05
2023-04-24T07:21:05.457Z,15.62
2023-04-24T07:23:36.091Z,16.14
2023-04-24T07:26:08.413Z,16.48
2023-04-24T07:28:40.559Z,16.48
2023-04-24T07:31:12.230Z,17.18
2023-04-24T07:33:43.361Z,17.48
2023-04-24T07:36:16.564Z,17.58
2023-04-24T07:38:47.915Z,17.96
2023-04-24T07:41:18.472Z,17.89
2023-04-24T07:43:49.098Z,17.57
2023-04-24T07:46:21.032Z,17.18
2023-04-24T07:49:05.307Z,16.93
2023-04-24T07:51:25.333Z,16.80
2023-04-24T07:53:56.397Z,16.73
2023-04-24T07:56:27.952Z,16.96
2023-04-24T07:59:01.070Z,16.85
2023-04-24T08:01:31.673Z,17.22
2023-04-24T08:04:02.592Z,17.34
2023-04-24T08:06:33.460Z,17.24
2023-04-24T08:09:04.610Z,17.39
2023-04-24T08:11:35.570Z,17.52
2023-04-24T08:14:06.564Z,17.65
2023-04-24T08:16:38.004Z,17.54
2023-04-24T08:19:09.322Z,17.57
2023-04-24T08:21:41.440Z,17.90
2023-04-24T08:24:12.549Z,17.99
2023-04-24T08:26:44.756Z,17.96
2023-04-24T08:29:16.971Z,17.88
2023-04-24T08:31:47.573Z,17.84
2023-04-24T08:34:18.206Z,18.08
2023-04-24T08:36:49.242Z,18.30
2023-04-24T08:39:21.691Z,18.46
2023-04-24T08:41:54.729Z,18.31
2023-04-24T08:44:25.474Z,18.22
2023-04-24T08:46:58.446Z,18.16
2023-04-24T08:49:30.489Z,18.60
2023-04-24T08:52:02.187Z,18.55
2023-04-24T08:54:35.347Z,18.77
2023-04-24T08:57:08.497Z,19.33
2023-04-24T08:59:39.864Z,18.92
2023-04-24T09:02:12.856Z,19.08
2023-04-24T09:04:44.933Z,18.36
2023-04-24T09:07:19.112Z,18.46
2023-04-24T09:09:52.337Z,18.66
2023-04-24T09:12:23.456Z,18.47
2023-04-24T09:14:55.179Z,18.61
2023-04-24T09:17:28.210Z,18.55
2023-04-24T09:19:58.979Z,18.43
2023-04-24T09:22:32.316Z,18.70
2023-04-24T09:25:08.479Z,18.56
2023-04-24T09:27:40.920Z,18.44
2023-04-24T09:30:12.389Z,18.78
2023-04-24T09:32:42.929Z,18.62
2023-04-24T09:35:15.481Z,19.07
2023-04-24T09:37:50.039Z,18.74
2023-04-24T09:40:23.035Z,18.29
2023-04-24T09:43:01.301Z,18.09
2023-04-24T09:45:34.877Z,18.05
2023-04-24T09:48:07.452Z,18.25
2023-04-24T09:50:38.342Z,18.18
2023-04-24T09:53:09.801Z,18.46
2023-04-24T09:55:49.233Z,18.52
2023-04-24T09:58:19.875Z,18.50
2023-04-24T10:00:50.368Z,18.68
2023-04-24T10:03:22.350Z,19.20
2023-04-24T10:06:28.407Z,19.96
2023-04-24T10:08:59.865Z,19.84
2023-04-24T10:11:31.852Z,20.25
2023-04-24T10:14:02.737Z,20.12
2023-04-24T10:16:36.040Z,20.36
2023-04-24T10:19:08.579Z,20.30
2023-04-24T10:21:41.261Z,20.12
2023-04-24T10:24:12.396Z,20.27
2023-04-24T10:26:43.730Z,20.38
2023-04-24T10:29:16.646Z,19.11
2023-04-24T10:31:48.341Z,18.23
2023-04-24T10:34:22.516Z,18.98
2023-04-24T10:36:58.470Z,18.78
2023-04-24T10:39:29.856Z,18.42
2023-04-24T10:42:00.304Z,18.32
2023-04-24T10:44:33.859Z,17.99
2023-04-24T10:47:04.476Z,17.36
2023-04-24T10:49:35.041Z,17.84
2023-04-24T10:52:06.784Z,18.16
2023-04-24T10:54:40.373Z,17.95
2023-04-24T10:57:31.082Z,18.20
2023-04-24T11:00:16.925Z,18.50
2023-04-24T11:02:51.298Z,17.71
2023-04-24T11:05:24.407Z,17.57
2023-04-24T11:08:19.002Z,18.26
2023-04-24T11:10:51.573Z,18.10
2023-04-24T11:13:26.753Z,19.23
2023-04-24T11:16:23.320Z,19.62
2023-04-24T11:18:57.028Z,19.48
2023-04-24T11:21:27.683Z,19.56
2023-04-24T11:23:58.424Z,19.96
2023-04-24T11:26:30.883Z,19.36
2023-04-24T11:29:11.886Z,19.36
2023-04-24T11:31:46.768Z,19.22
2023-04-24T11:34:19.003Z,18.84
2023-04-24T11:36:49.729Z,18.21
2023-04-24T11:39:20.473Z,17.60
2023-04-24T11:41:51.885Z,16.62
2023-04-24T11:44:24.193Z,16.19
2023-04-24T11:46:57.003Z,16.03
2023-04-24T11:49:27.882Z,15.97
2023-04-24T11:52:00.981Z,15.92
2023-04-24T11:54:31.178Z,16.46
2023-04-24T11:57:03.148Z,16.66
2023-04-24T11:59:38.993Z,17.42
2023-04-24T12:02:10.438Z,18.24
2023-04-24T12:04:43.053Z,17.96
2023-04-24T12:07:13.908Z,18.60
2023-04-24T12:09:52.693Z,18.18
2023-04-24T12:12:24.522Z,18.01
2023-04-24T12:14:57.387Z,18.04
2023-04-24T12:17:31.292Z,17.84
2023-04-24T12:20:04.257Z,17.66
2023-04-24T12:22:48.842Z,18.26
2023-04-24T12:25:21.058Z,18.47
2023-04-24T12:28:14.131Z,18.39
2023-04-24T12:30:49.341Z,18.40
2023-04-24T12:33:21.609Z,18.59
2023-04-24T12:35:55.874Z,19.42
2023-04-24T12:38:29.526Z,19.61
2023-04-24T12:41:15.815Z,20.10
2023-04-24T12:43:57.200Z,20.57
2023-04-24T12:46:28.384Z,20.52
2023-04-24T12:49:02.171Z,20.21
2023-04-24T12:51:32.944Z,19.42
2023-04-24T12:54:04.246Z,19.23
2023-04-24T12:56:38.308Z,19.25
2023-04-24T12:59:08.731Z,18.82
2023-04-24T13:01:41.009Z,18.67
2023-04-24T13:04:11.827Z,18.66
2023-04-24T13:06:46.843Z,18.75
2023-04-24T13:09:19.753Z,18.63
2023-04-24T13:11:50.960Z,18.49
2023-04-24T13:14:23.181Z,18.71
2023-04-24T13:16:56.944Z,19.34
2023-04-24T13:19:28.603Z,19.58
2023-04-24T13:22:00.278Z,19.70
2023-04-24T13:24:32.165Z,18.92
2023-04-24T13:27:03.814Z,18.85
2023-04-24T13:29:37.444Z,18.48
2023-04-24T13:32:08.824Z,18.31
2023-04-24T13:34:39.654Z,18.57
2023-04-24T13:37:10.397Z,18.38
2023-04-24T13:39:43.843Z,18.29
2023-04-24T13:42:14.361Z,18.14
2023-04-24T13:44:45.151Z,18.06
2023-04-24T13:47:17.273Z,18.56
2023-04-24T13:49:47.919Z,18.61
2023-04-24T13:52:18.421Z,18.86
2023-04-24T13:54:50.454Z,18.74
2023-04-24T13:57:21.304Z,18.71
2023-04-24T13:59:51.901Z,18.98
2023-04-24T14:02:22.789Z,19.18
2023-04-24T14:04:53.653Z,18.74
2023-04-24T14:07:27.008Z,18.34
2023-04-24T14:09:56.578Z,18.58
2023-04-24T14:12:28.190Z,18.41
2023-04-24T14:14:58.956Z,18.48
2023-04-24T14:17:29.613Z,18.62
2023-04-24T14:20:01.508Z,18.64
2023-04-24T14:22:32.338Z,18.56
2023-04-24T14:25:02.785Z,18.20
2023-04-24T14:27:35.652Z,18.25
2023-04-24T14:30:07.803Z,18.73
2023-04-24T14:32:38.308Z,18.60
2023-04-24T14:35:09.701Z,18.66
2023-04-24T14:37:41.810Z,18.57
2023-04-24T14:40:29.865Z,18.52
2023-04-24T14:42:47.639Z,18.68
2023-04-24T14:45:19.031Z,18.44
2023-04-24T14:47:49.617Z,18.19
2023-04-24T14:50:21.706Z,18.23
2023-04-24T14:52:52.425Z,18.06
2023-04-24T14:55:23.184Z,17.91
2023-04-24T14:57:57.778Z,17.70
2023-04-24T15:00:28.440Z,17.91
2023-04-24T15:02:59.554Z,18.16
2023-04-24T15:05:33.550Z,18.00
2023-04-24T15:08:04.604Z,18.04
2023-04-24T15:10:36.198Z,17.78
2023-04-24T15:13:06.937Z,17.52
2023-04-24T15:15:38.062Z,17.46
2023-04-24T15:18:11.909Z,17.49
2023-04-24T15:20:45.332Z,17.72
2023-04-24T15:23:16.336Z,17.60
2023-04-24T15:25:46.813Z,17.13
2023-04-24T15:28:18.903Z,17.20
2023-04-24T15:30:49.723Z,16.89
2023-04-24T15:33:20.761Z,16.95
2023-04-24T15:35:51.530Z,16.75
2023-04-24T15:38:22.111Z,16.53
2023-04-24T15:40:52.604Z,16.38
2023-04-24T15:43:23.899Z,16.28
2023-04-24T15:45:54.597Z,16.38
2023-04-24T15:48:27.110Z,16.52
2023-04-24T15:50:57.721Z,16.76
2023-04-24T15:53:28.859Z,16.82
2023-04-24T15:56:01.427Z,16.60
2023-04-24T15:58:32.096Z,16.50
2023-04-24T16:01:04.212Z,16.45
2023-04-24T16:03:34.777Z,16.28
2023-04-24T16:06:08.130Z,16.22
2023-04-24T16:08:41.120Z,16.04
2023-04-24T16:11:13.789Z,16.20
2023-04-24T16:13:44.766Z,16.38
2023-04-24T16:16:17.116Z,16.38
2023-04-24T16:18:48.157Z,16.48
2023-04-24T16:21:21.342Z,16.56
2023-04-24T16:23:53.110Z,16.52
2023-04-24T16:26:25.070Z,16.61
2023-04-24T16:28:56.042Z,16.78
2023-04-24T16:31:28.109Z,16.46
2023-04-24T16:33:58.773Z,16.46
2023-04-24T16:36:40.652Z,16.09
2023-04-24T16:39:11.431Z,15.60
2023-04-24T16:41:42.746Z,15.24
2023-04-24T16:44:14.817Z,14.92
2023-04-24T16:46:48.506Z,14.90
2023-04-24T16:49:19.174Z,14.76
2023-04-24T16:51:49.763Z,14.60
2023-04-24T16:54:20.462Z,14.34
2023-04-24T16:56:52.703Z,14.22
2023-04-24T16:59:24.118Z,14.23
2023-04-24T17:01:54.569Z,14.12
2023-04-24T17:04:25.267Z,14.09
2023-04-24T17:06:56.793Z,14.10
2023-04-24T17:09:27.510Z,13.89
2023-04-24T17:11:58.140Z,13.77
2023-04-24T17:14:29.694Z,13.74
2023-04-24T17:17:00.512Z,13.56
2023-04-24T17:19:31.274Z,13.64
2023-04-24T17:22:06.181Z,13.62
2023-04-24T17:24:34.645Z,13.42
2023-04-24T17:27:14.626Z,13.39
2023-04-24T17:29:37.412Z,13.24
2023-04-24T17:32:08.152Z,13.34
2023-04-24T17:34:39.090Z,13.23
2023-04-24T17:37:10.491Z,13.04
2023-04-24T17:39:41.263Z,13.02
2023-04-24T17:42:11.966Z,13.00
2023-04-24T17:44:42.559Z,12.99
2023-04-24T17:47:13.012Z,12.85
2023-04-24T17:49:43.730Z,12.80
2023-04-24T17:52:16.310Z,12.77
2023-04-24T17:54:46.850Z,12.80
2023-04-24T17:57:17.706Z,12.70
2023-04-24T17:59:50.168Z,12.62
2023-04-24T18:02:20.917Z,12.90
2023-04-24T18:04:54.989Z,13.06
2023-04-24T18:07:24.727Z,13.08
2023-04-24T18:09:56.415Z,13.01
2023-04-24T18:12:27.423Z,13.02
2023-04-24T18:15:13.159Z,12.98
2023-04-24T18:17:31.730Z,13.07
2023-04-24T18:20:02.210Z,12.89
2023-04-24T18:22:32.817Z,12.82
2023-04-24T18:25:03.536Z,12.72
2023-04-24T18:27:34.333Z,12.65
2023-04-24T18:30:07.125Z,12.59
2023-04-24T18:32:37.875Z,12.52
2023-04-24T18:35:09.303Z,12.60
2023-04-24T18:37:40.787Z,12.49
2023-04-24T18:40:12.140Z,12.43
2023-04-24T18:42:43.340Z,12.28
2023-04-24T18:45:15.553Z,12.10
2023-04-24T18:47:46.185Z,11.92
2023-04-24T18:50:17.039Z,12.00
2023-04-24T18:52:47.577Z,13.22
2023-04-24T18:55:18.143Z,13.44
2023-04-24T18:57:48.714Z,12.67
2023-04-24T19:00:20.072Z,12.04
2023-04-24T19:03:00.853Z,11.72
2023-04-24T19:05:34.571Z,11.36
2023-04-24T19:08:05.780Z,11.38
2023-04-24T19:10:37.857Z,11.08
2023-04-24T19:13:08.868Z,10.98
2023-04-24T19:15:40.949Z,11.00
2023-04-24T19:18:11.685Z,11.01
2023-04-24T19:20:44.063Z,10.96
2023-04-24T19:23:17.770Z,11.06
2023-04-24T19:25:49.594Z,11.00
2023-04-24T19:28:20.320Z,11.08
2023-04-24T19:30:50.803Z,11.02
2023-04-24T19:33:22.505Z,11.22
2023-04-24T19:35:53.519Z,11.22
2023-04-24T19:38:24.437Z,11.16
2023-04-24T19:40:55.113Z,11.14
2023-04-24T19:43:25.616Z,10.97
2023-04-24T19:45:57.785Z,11.00
2023-04-24T19:48:30.209Z,10.98
2023-04-24T19:51:01.474Z,10.93
2023-04-24T19:53:33.056Z,10.80
2023-04-24T19:56:03.660Z,10.74
2023-04-24T19:58:34.342Z,10.83
2023-04-24T20:01:06.423Z,10.62
2023-04-24T20:03:43.736Z,10.59
2023-04-24T20:06:15.445Z,10.55
2023-04-24T20:08:49.273Z,10.31
2023-04-24T20:11:20.274Z,10.36
2023-04-24T20:13:51.452Z,10.30
2023-04-24T20:16:22.089Z,10.34
2023-04-24T20:18:56.129Z,10.18
2023-04-24T20:21:26.936Z,10.09
2023-04-24T20:23:58.649Z,10.36
2023-04-24T20:26:29.943Z,10.29
2023-04-24T20:29:00.604Z,10.28
2023-04-24T20:31:31.769Z,10.18
2023-04-24T20:34:02.383Z,10.24
2023-04-24T20:36:37.342Z,10.28
2023-04-24T20:39:08.594Z,10.24
2023-04-24T20:41:41.542Z,10.31
2023-04-24T20:44:12.554Z,10.31
2023-04-24T20:46:43.326Z,10.42
2023-04-24T20:49:13.777Z,10.22
2023-04-24T20:51:44.528Z,10.14
2023-04-24T20:54:15.720Z,10.09
2023-04-24T20:56:46.766Z,10.14
2023-04-24T20:59:17.665Z,9.81
2023-04-24T21:01:50.576Z,9.76
2023-04-24T21:04:21.237Z,9.84
2023-04-24T21:06:51.809Z,9.76
2023-04-24T21:09:22.486Z,9.80
2023-04-24T21:11:53.031Z,9.86
2023-04-24T21:14:23.626Z,9.68
2023-04-24T21:16:55.982Z,9.92
2023-04-24T21:19:27.952Z,10.01
2023-04-24T21:21:58.578Z,10.05
2023-04-24T21:24:30.274Z,10.01
2023-04-24T21:27:01.599Z,9.94
2023-04-24T21:29:33.468Z,9.92
2023-04-24T21:32:04.402Z,9.72
2023-04-24T21:34:35.260Z,9.64
2023-04-24T21:37:05.834Z,9.57
2023-04-24T21:39:36.383Z,9.57
2023-04-24T21:42:06.928Z,9.62
2023-04-24T21:44:37.461Z,9.54
2023-04-24T21:47:08.320Z,9.63
2023-04-24T21:49:38.935Z,9.56
2023-04-24T21:52:09.628Z,9.64
2023-04-24T21:54:40.260Z,9.61
2023-04-24T21:57:10.848Z,9.46
2023-04-24T21:59:41.526Z,9.46
2023-04-24T22:02:12.251Z,9.39
2023-04-24T22:04:43.616Z,9.30
2023-04-24T22:07:19.215Z,9.16
2023-04-24T22:09:49.936Z,9.10
2023-04-24T22:12:21.429Z,9.18
2023-04-24T22:14:52.420Z,9.22
2023-04-24T22:17:23.594Z,9.15
2023-04-24T22:19:54.708Z,9.18
2023-04-24T22:22:26.048Z,9.26
2023-04-24T22:24:58.283Z,9.10
2023-04-24T22:27:30.054Z,9.01
2023-04-24T22:30:02.363Z,9.00
2023-04-24T22:32:33.525Z,8.91
2023-04-24T22:35:05.826Z,9.03
2023-04-24T22:37:36.367Z,8.86
2023-04-24T22:40:08.386Z,8.87
2023-04-24T22:42:40.622Z,8.86
2023-04-24T22:45:13.537Z,8.80
2023-04-24T22:47:44.302Z,9.08
2023-04-24T22:50:15.334Z,8.82
2023-04-24T22:52:45.919Z,8.92
2023-04-24T22:55:18.810Z,8.98
2023-04-24T22:57:52.868Z,8.98
2023-04-24T23:00:23.656Z,9.08
2023-04-24T23:02:54.688Z,9.06
2023-04-24T23:05:25.447Z,9.18
2023-04-24T23:07:57.886Z,9.20
2023-04-24T23:10:28.608Z,9.20
2023-04-24T23:12:59.136Z,9.22
2023-04-24T23:15:29.758Z,9.12
2023-04-24T23:18:00.418Z,9.22
2023-04-24T23:20:32.658Z,9.30
2023-04-24T23:23:04.530Z,9.13
2023-04-24T23:25:36.617Z,9.27
2023-04-24T23:28:07.243Z,9.28
2023-04-24T23:30:38.922Z,9.15
2023-04-24T23:33:10.212Z,9.28
2023-04-24T23:35:40.842Z,9.29
2023-04-24T23:38:12.400Z,9.30
2023-04-24T23:40:43.708Z,9.01
2023-04-24T23:43:14.278Z,9.02
2023-04-24T23:45:45.070Z,8.90
2023-04-24T23:48:16.506Z,8.81
2023-04-24T23:50:47.154Z,8.82
2023-04-24T23:53:18.251Z,8.72
2023-04-24T23:55:48.666Z,8.94
2023-04-24T23:58:19.123Z,8.84
